sensor_id;sensor_type;location;lat;lon;timestamp;pressure;altitude;pressure_sealevel;temperature
70415;BMP280;57837;52.064;113.478;2023-03-01T00:00:46;94719.00;;;-14.48
70415;BMP280;57837;52.064;113.478;2023-03-01T00:03:51;94712.19;;;-14.62
70415;BMP280;57837;52.064;113.478;2023-03-01T00:06:55;94708.44;;;-14.65
70415;BMP280;57837;52.064;113.478;2023-03-01T00:09:58;94712.53;;;-14.81
70415;BMP280;57837;52.064;113.478;2023-03-01T00:13:02;94714.34;;;-14.71
70415;BMP280;57837;52.064;113.478;2023-03-01T00:16:10;94710.81;;;-14.80
70415;BMP280;57837;52.064;113.478;2023-03-01T00:19:16;94718.72;;;-14.83
70415;BMP280;57837;52.064;113.478;2023-03-01T00:22:20;94721.34;;;-14.95
70415;BMP280;57837;52.064;113.478;2023-03-01T00:25:24;94712.78;;;-15.04
70415;BMP280;57837;52.064;113.478;2023-03-01T00:28:28;94713.78;;;-14.78
70415;BMP280;57837;52.064;113.478;2023-03-01T00:31:32;94706.16;;;-14.72
70415;BMP280;57837;52.064;113.478;2023-03-01T00:34:36;94712.06;;;-14.78
70415;BMP280;57837;52.064;113.478;2023-03-01T00:37:40;94713.19;;;-14.90
70415;BMP280;57837;52.064;113.478;2023-03-01T00:40:44;94705.09;;;-14.81
70415;BMP280;57837;52.064;113.478;2023-03-01T00:43:49;94716.69;;;-14.27
70415;BMP280;57837;52.064;113.478;2023-03-01T00:46:53;94724.69;;;-13.73
70415;BMP280;57837;52.064;113.478;2023-03-01T00:49:57;94712.63;;;-13.34
70415;BMP280;57837;52.064;113.478;2023-03-01T00:53:01;94713.47;;;-12.87
70415;BMP280;57837;52.064;113.478;2023-03-01T00:56:06;94713.22;;;-12.50
70415;BMP280;57837;52.064;113.478;2023-03-01T00:59:10;94713.41;;;-12.01
70415;BMP280;57837;52.064;113.478;2023-03-01T01:02:14;94709.28;;;-11.56
70415;BMP280;57837;52.064;113.478;2023-03-01T01:05:18;94712.31;;;-10.76
70415;BMP280;57837;52.064;113.478;2023-03-01T01:08:24;94706.44;;;-10.08
70415;BMP280;57837;52.064;113.478;2023-03-01T01:11:29;94715.34;;;-9.78
70415;BMP280;57837;52.064;113.478;2023-03-01T01:14:33;94719.94;;;-9.42
70415;BMP280;57837;52.064;113.478;2023-03-01T01:17:36;94723.94;;;-9.41
70415;BMP280;57837;52.064;113.478;2023-03-01T01:20:39;94724.91;;;-9.37
70415;BMP280;57837;52.064;113.478;2023-03-01T01:23:43;94721.31;;;-9.12
70415;BMP280;57837;52.064;113.478;2023-03-01T01:26:47;94705.09;;;-8.69
70415;BMP280;57837;52.064;113.478;2023-03-01T01:29:52;94699.22;;;-8.18
70415;BMP280;57837;52.064;113.478;2023-03-01T01:32:56;94693.44;;;-7.91
70415;BMP280;57837;52.064;113.478;2023-03-01T01:36:00;94695.13;;;-7.86
70415;BMP280;57837;52.064;113.478;2023-03-01T01:39:03;94693.63;;;-7.74
70415;BMP280;57837;52.064;113.478;2023-03-01T01:42:16;94698.78;;;-7.20
70415;BMP280;57837;52.064;113.478;2023-03-01T01:48:41;94708.34;;;-6.77
70415;BMP280;57837;52.064;113.478;2023-03-01T01:51:48;94706.94;;;-6.70
70415;BMP280;57837;52.064;113.478;2023-03-01T01:58:02;94706.84;;;-6.16
70415;BMP280;57837;52.064;113.478;2023-03-01T02:01:08;94692.06;;;-6.01
70415;BMP280;57837;52.064;113.478;2023-03-01T02:04:11;94695.03;;;-5.99
70415;BMP280;57837;52.064;113.478;2023-03-01T02:07:20;94694.75;;;-5.89
70415;BMP280;57837;52.064;113.478;2023-03-01T02:10:26;94690.41;;;-6.05
70415;BMP280;57837;52.064;113.478;2023-03-01T02:13:31;94692.47;;;-6.07
70415;BMP280;57837;52.064;113.478;2023-03-01T02:16:35;94686.00;;;-5.65
70415;BMP280;57837;52.064;113.478;2023-03-01T02:22:44;94676.78;;;-4.63
70415;BMP280;57837;52.064;113.478;2023-03-01T02:26:08;94674.09;;;-4.57
70415;BMP280;57837;52.064;113.478;2023-03-01T02:29:12;94666.47;;;-4.87
70415;BMP280;57837;52.064;113.478;2023-03-01T02:32:17;94660.34;;;-4.69
70415;BMP280;57837;52.064;113.478;2023-03-01T02:35:30;94662.84;;;-4.10
70415;BMP280;57837;52.064;113.478;2023-03-01T02:38:36;94652.88;;;-3.65
70415;BMP280;57837;52.064;113.478;2023-03-01T02:41:44;94652.47;;;-3.21
70415;BMP280;57837;52.064;113.478;2023-03-01T02:44:50;94648.16;;;-3.21
70415;BMP280;57837;52.064;113.478;2023-03-01T02:47:55;94638.88;;;-3.29
70415;BMP280;57837;52.064;113.478;2023-03-01T02:58:04;94601.13;;;-2.49
70415;BMP280;57837;52.064;113.478;2023-03-01T03:01:08;94600.94;;;-2.16
70415;BMP280;57837;52.064;113.478;2023-03-01T03:04:15;94600.25;;;-2.41
70415;BMP280;57837;52.064;113.478;2023-03-01T03:07:24;94599.84;;;-2.67
70415;BMP280;57837;52.064;113.478;2023-03-01T03:10:31;94600.59;;;-2.54
70415;BMP280;57837;52.064;113.478;2023-03-01T03:13:36;94600.72;;;-2.11
70415;BMP280;57837;52.064;113.478;2023-03-01T03:16:45;94588.06;;;-1.67
70415;BMP280;57837;52.064;113.478;2023-03-01T03:19:50;94577.25;;;-1.64
70415;BMP280;57837;52.064;113.478;2023-03-01T03:22:54;94576.13;;;-1.94
70415;BMP280;57837;52.064;113.478;2023-03-01T03:25:57;94584.16;;;-1.64
70415;BMP280;57837;52.064;113.478;2023-03-01T03:29:01;94576.16;;;-1.19
70415;BMP280;57837;52.064;113.478;2023-03-01T03:32:04;94578.03;;;-1.32
70415;BMP280;57837;52.064;113.478;2023-03-01T03:35:09;94568.19;;;-1.33
70415;BMP280;57837;52.064;113.478;2023-03-01T03:38:14;94563.50;;;-1.00
70415;BMP280;57837;52.064;113.478;2023-03-01T03:41:20;94545.47;;;-0.95
70415;BMP280;57837;52.064;113.478;2023-03-01T03:44:24;94548.13;;;-1.23
70415;BMP280;57837;52.064;113.478;2023-03-01T03:47:28;94546.25;;;-1.42
70415;BMP280;57837;52.064;113.478;2023-03-01T03:50:31;94541.00;;;-1.17
70415;BMP280;57837;52.064;113.478;2023-03-01T03:53:35;94545.44;;;-1.14
70415;BMP280;57837;52.064;113.478;2023-03-01T03:56:38;94533.28;;;-1.37
70415;BMP280;57837;52.064;113.478;2023-03-01T03:59:41;94532.81;;;-1.11
70415;BMP280;57837;52.064;113.478;2023-03-01T04:02:46;94536.78;;;-0.75
70415;BMP280;57837;52.064;113.478;2023-03-01T04:05:51;94518.59;;;-0.96
70415;BMP280;57837;52.064;113.478;2023-03-01T04:08:54;94523.63;;;-1.15
70415;BMP280;57837;52.064;113.478;2023-03-01T04:12:01;94517.22;;;-1.09
70415;BMP280;57837;52.064;113.478;2023-03-01T04:15:06;94501.69;;;-1.23
70415;BMP280;57837;52.064;113.478;2023-03-01T04:18:18;94493.81;;;-1.18
70415;BMP280;57837;52.064;113.478;2023-03-01T04:21:22;94492.78;;;-0.79
70415;BMP280;57837;52.064;113.478;2023-03-01T04:24:26;94482.09;;;-0.88
70415;BMP280;57837;52.064;113.478;2023-03-01T04:27:29;94471.47;;;-0.93
70415;BMP280;57837;52.064;113.478;2023-03-01T04:30:35;94475.34;;;-0.61
70415;BMP280;57837;52.064;113.478;2023-03-01T04:36:50;94454.13;;;-0.69
70415;BMP280;57837;52.064;113.478;2023-03-01T04:39:53;94448.16;;;-0.38
70415;BMP280;57837;52.064;113.478;2023-03-01T04:42:57;94447.41;;;-0.38
70415;BMP280;57837;52.064;113.478;2023-03-01T04:46:06;94446.75;;;-0.54
70415;BMP280;57837;52.064;113.478;2023-03-01T04:49:12;94440.34;;;-0.29
70415;BMP280;57837;52.064;113.478;2023-03-01T04:52:16;94435.81;;;-0.16
70415;BMP280;57837;52.064;113.478;2023-03-01T04:55:20;94434.75;;;-0.35
70415;BMP280;57837;52.064;113.478;2023-03-01T04:58:24;94426.91;;;-0.29
70415;BMP280;57837;52.064;113.478;2023-03-01T05:01:28;94402.97;;;-0.02
70415;BMP280;57837;52.064;113.478;2023-03-01T05:04:32;94399.91;;;-0.11
70415;BMP280;57837;52.064;113.478;2023-03-01T05:07:36;94394.66;;;-0.22
70415;BMP280;57837;52.064;113.478;2023-03-01T05:10:39;94380.47;;;-0.23
70415;BMP280;57837;52.064;113.478;2023-03-01T05:13:47;94379.47;;;-0.18
70415;BMP280;57837;52.064;113.478;2023-03-01T05:16:53;94366.28;;;-0.24
70415;BMP280;57837;52.064;113.478;2023-03-01T05:19:56;94378.84;;;-0.12
70415;BMP280;57837;52.064;113.478;2023-03-01T05:23:02;94368.06;;;-0.28
70415;BMP280;57837;52.064;113.478;2023-03-01T05:26:08;94360.63;;;-0.14
70415;BMP280;57837;52.064;113.478;2023-03-01T05:29:30;94355.66;;;-0.07
70415;BMP280;57837;52.064;113.478;2023-03-01T05:32:34;94354.06;;;-0.15
70415;BMP280;57837;52.064;113.478;2023-03-01T05:35:37;94360.63;;;-0.14
70415;BMP280;57837;52.064;113.478;2023-03-01T05:38:40;94354.22;;;-0.30
70415;BMP280;57837;52.064;113.478;2023-03-01T05:41:43;94336.59;;;-0.16
70415;BMP280;57837;52.064;113.478;2023-03-01T05:44:46;94342.50;;;-0.12
70415;BMP280;57837;52.064;113.478;2023-03-01T05:47:50;94329.44;;;-0.11
70415;BMP280;57837;52.064;113.478;2023-03-01T05:50:55;94325.75;;;-0.13
70415;BMP280;57837;52.064;113.478;2023-03-01T05:54:02;94320.72;;;-0.10
70415;BMP280;57837;52.064;113.478;2023-03-01T05:57:08;94313.88;;;-0.55
70415;BMP280;57837;52.064;113.478;2023-03-01T06:00:12;94308.59;;;-0.43
70415;BMP280;57837;52.064;113.478;2023-03-01T06:03:17;94299.94;;;-0.38
70415;BMP280;57837;52.064;113.478;2023-03-01T06:06:20;94305.66;;;-0.45
70415;BMP280;57837;52.064;113.478;2023-03-01T06:09:24;94301.41;;;-0.14
70415;BMP280;57837;52.064;113.478;2023-03-01T06:12:36;94283.75;;;-0.04
70415;BMP280;57837;52.064;113.478;2023-03-01T06:15:40;94297.13;;;-0.33
70415;BMP280;57837;52.064;113.478;2023-03-01T06:18:43;94292.94;;;-0.45
70415;BMP280;57837;52.064;113.478;2023-03-01T06:21:47;94268.19;;;-0.48
70415;BMP280;57837;52.064;113.478;2023-03-01T06:24:51;94280.97;;;-0.44
70415;BMP280;57837;52.064;113.478;2023-03-01T06:27:55;94275.59;;;-0.39
70415;BMP280;57837;52.064;113.478;2023-03-01T06:31:00;94276.22;;;-0.46
70415;BMP280;57837;52.064;113.478;2023-03-01T06:34:03;94253.28;;;-0.49
70415;BMP280;57837;52.064;113.478;2023-03-01T06:37:07;94256.91;;;-0.27
70415;BMP280;57837;52.064;113.478;2023-03-01T06:40:11;94252.84;;;-0.32
70415;BMP280;57837;52.064;113.478;2023-03-01T06:43:16;94243.72;;;-0.33
70415;BMP280;57837;52.064;113.478;2023-03-01T06:46:20;94229.69;;;-0.23
70415;BMP280;57837;52.064;113.478;2023-03-01T06:49:24;94229.63;;;-0.27
70415;BMP280;57837;52.064;113.478;2023-03-01T06:52:28;94219.50;;;-0.50
70415;BMP280;57837;52.064;113.478;2023-03-01T06:55:32;94213.09;;;-0.67
70415;BMP280;57837;52.064;113.478;2023-03-01T06:58:37;94203.56;;;-0.73
70415;BMP280;57837;52.064;113.478;2023-03-01T07:01:40;94197.47;;;-0.69
70415;BMP280;57837;52.064;113.478;2023-03-01T07:04:44;94200.56;;;-0.82
70415;BMP280;57837;52.064;113.478;2023-03-01T07:07:48;94176.41;;;-0.95
70415;BMP280;57837;52.064;113.478;2023-03-01T07:10:58;94172.66;;;-1.02
70415;BMP280;57837;52.064;113.478;2023-03-01T07:14:01;94177.00;;;-1.02
70415;BMP280;57837;52.064;113.478;2023-03-01T07:17:05;94167.97;;;-0.99
70415;BMP280;57837;52.064;113.478;2023-03-01T07:20:10;94164.19;;;-0.86
70415;BMP280;57837;52.064;113.478;2023-03-01T07:23:13;94164.59;;;-0.84
70415;BMP280;57837;52.064;113.478;2023-03-01T07:26:16;94154.44;;;-0.81
70415;BMP280;57837;52.064;113.478;2023-03-01T07:29:20;94134.50;;;-0.52
70415;BMP280;57837;52.064;113.478;2023-03-01T07:32:27;94133.41;;;-0.51
70415;BMP280;57837;52.064;113.478;2023-03-01T07:35:31;94129.81;;;-0.50
70415;BMP280;57837;52.064;113.478;2023-03-01T07:38:36;94130.56;;;-0.46
70415;BMP280;57837;52.064;113.478;2023-03-01T07:41:40;94128.38;;;-0.48
70415;BMP280;57837;52.064;113.478;2023-03-01T07:44:43;94120.69;;;-0.55
70415;BMP280;57837;52.064;113.478;2023-03-01T07:47:47;94116.50;;;-0.40
70415;BMP280;57837;52.064;113.478;2023-03-01T07:50:50;94111.22;;;-0.28
70415;BMP280;57837;52.064;113.478;2023-03-01T07:53:54;94110.78;;;-0.34
70415;BMP280;57837;52.064;113.478;2023-03-01T07:56:57;94109.06;;;-0.52
70415;BMP280;57837;52.064;113.478;2023-03-01T08:00:01;94118.84;;;-0.58
70415;BMP280;57837;52.064;113.478;2023-03-01T08:03:12;94102.38;;;-0.68
70415;BMP280;57837;52.064;113.478;2023-03-01T08:06:17;94102.84;;;-0.88
70415;BMP280;57837;52.064;113.478;2023-03-01T08:09:20;94103.38;;;-1.02
70415;BMP280;57837;52.064;113.478;2023-03-01T08:12:23;94100.00;;;-1.10
70415;BMP280;57837;52.064;113.478;2023-03-01T08:15:27;94095.63;;;-1.09
70415;BMP280;57837;52.064;113.478;2023-03-01T08:18:32;94095.50;;;-1.20
70415;BMP280;57837;52.064;113.478;2023-03-01T08:21:35;94078.91;;;-1.37
70415;BMP280;57837;52.064;113.478;2023-03-01T08:24:39;94070.63;;;-1.33
70415;BMP280;57837;52.064;113.478;2023-03-01T08:27:42;94061.78;;;-1.43
70415;BMP280;57837;52.064;113.478;2023-03-01T08:30:47;94056.88;;;-1.32
70415;BMP280;57837;52.064;113.478;2023-03-01T08:33:51;94052.97;;;-1.26
70415;BMP280;57837;52.064;113.478;2023-03-01T08:36:59;94050.72;;;-1.31
70415;BMP280;57837;52.064;113.478;2023-03-01T08:40:03;94048.19;;;-1.31
70415;BMP280;57837;52.064;113.478;2023-03-01T08:43:09;94052.25;;;-1.27
70415;BMP280;57837;52.064;113.478;2023-03-01T08:46:13;94043.84;;;-1.31
70415;BMP280;57837;52.064;113.478;2023-03-01T08:49:19;94032.44;;;-1.41
70415;BMP280;57837;52.064;113.478;2023-03-01T08:52:22;94024.75;;;-1.48
70415;BMP280;57837;52.064;113.478;2023-03-01T08:55:27;94015.22;;;-1.54
70415;BMP280;57837;52.064;113.478;2023-03-01T08:58:31;94015.84;;;-1.61
70415;BMP280;57837;52.064;113.478;2023-03-01T09:01:34;94009.63;;;-1.63
70415;BMP280;57837;52.064;113.478;2023-03-01T09:04:39;94005.00;;;-1.58
70415;BMP280;57837;52.064;113.478;2023-03-01T09:07:43;93994.34;;;-1.44
70415;BMP280;57837;52.064;113.478;2023-03-01T09:10:47;93987.06;;;-1.46
70415;BMP280;57837;52.064;113.478;2023-03-01T09:13:51;93990.72;;;-1.43
70415;BMP280;57837;52.064;113.478;2023-03-01T09:16:55;93982.78;;;-1.42
70415;BMP280;57837;52.064;113.478;2023-03-01T09:19:59;93975.09;;;-1.45
70415;BMP280;57837;52.064;113.478;2023-03-01T09:23:02;93970.84;;;-1.64
70415;BMP280;57837;52.064;113.478;2023-03-01T09:26:10;93965.97;;;-1.76
70415;BMP280;57837;52.064;113.478;2023-03-01T09:29:15;93971.69;;;-1.83
70415;BMP280;57837;52.064;113.478;2023-03-01T09:32:18;93961.94;;;-1.81
70415;BMP280;57837;52.064;113.478;2023-03-01T09:35:22;93955.38;;;-1.82
70415;BMP280;57837;52.064;113.478;2023-03-01T09:38:27;93954.53;;;-1.89
70415;BMP280;57837;52.064;113.478;2023-03-01T09:41:57;93959.91;;;-1.94
70415;BMP280;57837;52.064;113.478;2023-03-01T09:45:11;93953.53;;;-2.08
70415;BMP280;57837;52.064;113.478;2023-03-01T09:48:21;93946.66;;;-2.07
70415;BMP280;57837;52.064;113.478;2023-03-01T09:51:32;93952.81;;;-2.08
70415;BMP280;57837;52.064;113.478;2023-03-01T09:54:35;93938.59;;;-2.13
70415;BMP280;57837;52.064;113.478;2023-03-01T09:57:49;93936.06;;;-2.13
70415;BMP280;57837;52.064;113.478;2023-03-01T10:00:56;93937.19;;;-2.10
70415;BMP280;57837;52.064;113.478;2023-03-01T10:10:43;93924.72;;;-2.22
70415;BMP280;57837;52.064;113.478;2023-03-01T10:20:46;93907.59;;;-2.29
70415;BMP280;57837;52.064;113.478;2023-03-01T10:23:52;93902.09;;;-2.31
70415;BMP280;57837;52.064;113.478;2023-03-01T10:26:58;93904.25;;;-2.33
70415;BMP280;57837;52.064;113.478;2023-03-01T10:33:31;93892.91;;;-2.39
70415;BMP280;57837;52.064;113.478;2023-03-01T10:36:38;93862.56;;;-2.36
70415;BMP280;57837;52.064;113.478;2023-03-01T10:43:02;93848.28;;;-2.47
70415;BMP280;57837;52.064;113.478;2023-03-01T10:49:28;93852.91;;;-2.53
70415;BMP280;57837;52.064;113.478;2023-03-01T10:52:36;93852.13;;;-2.57
70415;BMP280;57837;52.064;113.478;2023-03-01T10:55:40;93853.19;;;-2.58
70415;BMP280;57837;52.064;113.478;2023-03-01T10:59:00;93847.59;;;-2.67
70415;BMP280;57837;52.064;113.478;2023-03-01T11:02:18;93842.84;;;-2.69
70415;BMP280;57837;52.064;113.478;2023-03-01T11:05:27;93835.91;;;-2.75
70415;BMP280;57837;52.064;113.478;2023-03-01T11:08:43;93823.91;;;-2.78
70415;BMP280;57837;52.064;113.478;2023-03-01T11:11:52;93833.25;;;-2.82
70415;BMP280;57837;52.064;113.478;2023-03-01T11:14:57;93818.06;;;-2.82
70415;BMP280;57837;52.064;113.478;2023-03-01T11:18:00;93811.31;;;-2.75
70415;BMP280;57837;52.064;113.478;2023-03-01T11:21:16;93813.72;;;-2.82
70415;BMP280;57837;52.064;113.478;2023-03-01T11:24:29;93816.25;;;-2.82
70415;BMP280;57837;52.064;113.478;2023-03-01T11:27:41;93812.63;;;-2.61
70415;BMP280;57837;52.064;113.478;2023-03-01T11:30:55;93798.34;;;-2.70
70415;BMP280;57837;52.064;113.478;2023-03-01T11:34:14;93796.47;;;-2.76
70415;BMP280;57837;52.064;113.478;2023-03-01T11:37:40;93791.34;;;-2.80
70415;BMP280;57837;52.064;113.478;2023-03-01T11:40:57;93791.63;;;-2.85
70415;BMP280;57837;52.064;113.478;2023-03-01T11:44:18;93790.34;;;-2.94
70415;BMP280;57837;52.064;113.478;2023-03-01T11:47:26;93789.22;;;-2.97
70415;BMP280;57837;52.064;113.478;2023-03-01T11:50:47;93789.09;;;-2.85
70415;BMP280;57837;52.064;113.478;2023-03-01T11:57:53;93772.34;;;-2.67
70415;BMP280;57837;52.064;113.478;2023-03-01T12:08:20;93754.66;;;-2.89
70415;BMP280;57837;52.064;113.478;2023-03-01T12:41:55;93678.44;;;-2.58
70415;BMP280;57837;52.064;113.478;2023-03-01T12:49:08;93666.84;;;-2.59
70415;BMP280;57837;52.064;113.478;2023-03-01T12:52:23;93647.59;;;-2.63
70415;BMP280;57837;52.064;113.478;2023-03-01T12:55:38;93649.16;;;-2.82
70415;BMP280;57837;52.064;113.478;2023-03-01T13:02:23;93635.38;;;-2.84
70415;BMP280;57837;52.064;113.478;2023-03-01T13:05:46;93623.16;;;-2.79
70415;BMP280;57837;52.064;113.478;2023-03-01T13:09:28;93616.19;;;-2.85
70415;BMP280;57837;52.064;113.478;2023-03-01T13:15:52;93617.38;;;-3.06
70415;BMP280;57837;52.064;113.478;2023-03-01T13:19:26;93597.97;;;-2.94
70415;BMP280;57837;52.064;113.478;2023-03-01T13:22:32;93595.13;;;-2.93
70415;BMP280;57837;52.064;113.478;2023-03-01T13:29:26;93592.13;;;-2.99
70415;BMP280;57837;52.064;113.478;2023-03-01T13:32:32;93600.69;;;-3.10
70415;BMP280;57837;52.064;113.478;2023-03-01T13:35:45;93597.69;;;-3.16
70415;BMP280;57837;52.064;113.478;2023-03-01T13:42:44;93584.53;;;-3.25
70415;BMP280;57837;52.064;113.478;2023-03-01T13:46:08;93584.97;;;-3.46
70415;BMP280;57837;52.064;113.478;2023-03-01T13:49:16;93580.72;;;-3.65
70415;BMP280;57837;52.064;113.478;2023-03-01T13:52:39;93577.84;;;-3.63
70415;BMP280;57837;52.064;113.478;2023-03-01T13:55:51;93559.88;;;-3.58
70415;BMP280;57837;52.064;113.478;2023-03-01T13:59:02;93554.56;;;-3.49
70415;BMP280;57837;52.064;113.478;2023-03-01T14:02:12;93554.25;;;-3.48
70415;BMP280;57837;52.064;113.478;2023-03-01T14:05:16;93553.56;;;-3.45
70415;BMP280;57837;52.064;113.478;2023-03-01T14:08:23;93550.66;;;-3.47
70415;BMP280;57837;52.064;113.478;2023-03-01T14:11:37;93544.50;;;-3.46
70415;BMP280;57837;52.064;113.478;2023-03-01T14:18:18;93542.00;;;-3.46
70415;BMP280;57837;52.064;113.478;2023-03-01T14:21:25;93531.19;;;-3.43
70415;BMP280;57837;52.064;113.478;2023-03-01T14:24:31;93524.63;;;-3.47
70415;BMP280;57837;52.064;113.478;2023-03-01T14:27:40;93523.75;;;-3.58
70415;BMP280;57837;52.064;113.478;2023-03-01T14:30:50;93518.63;;;-3.62
70415;BMP280;57837;52.064;113.478;2023-03-01T14:33:57;93512.00;;;-3.70
70415;BMP280;57837;52.064;113.478;2023-03-01T14:37:32;93508.28;;;-3.76
70415;BMP280;57837;52.064;113.478;2023-03-01T14:40:36;93511.44;;;-3.83
70415;BMP280;57837;52.064;113.478;2023-03-01T14:43:45;93511.41;;;-3.86
70415;BMP280;57837;52.064;113.478;2023-03-01T14:46:55;93510.34;;;-3.85
70415;BMP280;57837;52.064;113.478;2023-03-01T14:50:25;93504.63;;;-3.79
70415;BMP280;57837;52.064;113.478;2023-03-01T14:53:27;93502.56;;;-3.73
70415;BMP280;57837;52.064;113.478;2023-03-01T14:56:46;93504.47;;;-3.67
70415;BMP280;57837;52.064;113.478;2023-03-01T14:59:55;93503.06;;;-3.64
70415;BMP280;57837;52.064;113.478;2023-03-01T15:03:30;93505.25;;;-3.62
70415;BMP280;57837;52.064;113.478;2023-03-01T15:06:34;93506.78;;;-3.54
70415;BMP280;57837;52.064;113.478;2023-03-01T15:09:39;93495.66;;;-3.50
70415;BMP280;57837;52.064;113.478;2023-03-01T15:12:43;93480.69;;;-3.36
70415;BMP280;57837;52.064;113.478;2023-03-01T15:15:47;93495.38;;;-3.18
70415;BMP280;57837;52.064;113.478;2023-03-01T15:19:02;93486.50;;;-3.05
70415;BMP280;57837;52.064;113.478;2023-03-01T15:22:14;93466.31;;;-2.98
70415;BMP280;57837;52.064;113.478;2023-03-01T15:25:19;93449.81;;;-2.88
70415;BMP280;57837;52.064;113.478;2023-03-01T15:28:31;93445.13;;;-2.86
70415;BMP280;57837;52.064;113.478;2023-03-01T15:31:37;93442.56;;;-2.90
70415;BMP280;57837;52.064;113.478;2023-03-01T15:34:42;93425.03;;;-3.06
70415;BMP280;57837;52.064;113.478;2023-03-01T15:37:47;93429.09;;;-3.27
70415;BMP280;57837;52.064;113.478;2023-03-01T15:40:52;93420.00;;;-3.36
70415;BMP280;57837;52.064;113.478;2023-03-01T15:43:57;93435.94;;;-3.32
70415;BMP280;57837;52.064;113.478;2023-03-01T15:47:22;93419.72;;;-3.27
70415;BMP280;57837;52.064;113.478;2023-03-01T15:50:34;93418.38;;;-3.21
70415;BMP280;57837;52.064;113.478;2023-03-01T15:53:38;93415.50;;;-3.19
70415;BMP280;57837;52.064;113.478;2023-03-01T15:56:55;93409.69;;;-3.20
70415;BMP280;57837;52.064;113.478;2023-03-01T15:59:59;93402.50;;;-3.18
70415;BMP280;57837;52.064;113.478;2023-03-01T16:03:06;93397.19;;;-3.06
70415;BMP280;57837;52.064;113.478;2023-03-01T16:06:12;93384.72;;;-2.88
70415;BMP280;57837;52.064;113.478;2023-03-01T16:09:16;93380.88;;;-2.75
70415;BMP280;57837;52.064;113.478;2023-03-01T16:12:21;93383.09;;;-2.66
70415;BMP280;57837;52.064;113.478;2023-03-01T16:15:27;93381.75;;;-2.56
70415;BMP280;57837;52.064;113.478;2023-03-01T16:18:34;93392.66;;;-2.52
70415;BMP280;57837;52.064;113.478;2023-03-01T16:21:38;93395.22;;;-2.49
70415;BMP280;57837;52.064;113.478;2023-03-01T16:24:41;93399.19;;;-2.44
70415;BMP280;57837;52.064;113.478;2023-03-01T16:27:49;93396.69;;;-2.41
70415;BMP280;57837;52.064;113.478;2023-03-01T16:30:53;93398.19;;;-2.36
70415;BMP280;57837;52.064;113.478;2023-03-01T16:33:58;93396.03;;;-2.34
70415;BMP280;57837;52.064;113.478;2023-03-01T16:37:03;93394.94;;;-2.33
70415;BMP280;57837;52.064;113.478;2023-03-01T16:40:30;93395.25;;;-2.42
70415;BMP280;57837;52.064;113.478;2023-03-01T16:43:34;93394.81;;;-2.54
70415;BMP280;57837;52.064;113.478;2023-03-01T16:46:41;93401.59;;;-2.62
70415;BMP280;57837;52.064;113.478;2023-03-01T16:49:46;93397.88;;;-2.72
70415;BMP280;57837;52.064;113.478;2023-03-01T16:52:50;93397.53;;;-2.70
70415;BMP280;57837;52.064;113.478;2023-03-01T16:55:58;93394.66;;;-2.69
70415;BMP280;57837;52.064;113.478;2023-03-01T16:59:02;93389.94;;;-2.74
70415;BMP280;57837;52.064;113.478;2023-03-01T17:02:11;93388.38;;;-2.85
70415;BMP280;57837;52.064;113.478;2023-03-01T17:05:15;93407.38;;;-2.99
70415;BMP280;57837;52.064;113.478;2023-03-01T17:08:18;93402.66;;;-3.00
70415;BMP280;57837;52.064;113.478;2023-03-01T17:11:22;93402.66;;;-3.00
70415;BMP280;57837;52.064;113.478;2023-03-01T17:14:26;93390.38;;;-3.02
70415;BMP280;57837;52.064;113.478;2023-03-01T17:17:30;93391.06;;;-3.05
70415;BMP280;57837;52.064;113.478;2023-03-01T17:20:34;93394.63;;;-3.09
70415;BMP280;57837;52.064;113.478;2023-03-01T17:23:41;93393.47;;;-3.15
70415;BMP280;57837;52.064;113.478;2023-03-01T17:26:45;93398.59;;;-3.12
70415;BMP280;57837;52.064;113.478;2023-03-01T17:29:49;93395.31;;;-3.12
70415;BMP280;57837;52.064;113.478;2023-03-01T17:32:52;93397.56;;;-3.07
70415;BMP280;57837;52.064;113.478;2023-03-01T17:35:58;93398.63;;;-3.08
70415;BMP280;57837;52.064;113.478;2023-03-01T17:39:02;93397.09;;;-3.16
70415;BMP280;57837;52.064;113.478;2023-03-01T17:42:06;93401.03;;;-3.19
70415;BMP280;57837;52.064;113.478;2023-03-01T17:45:10;93395.63;;;-3.17
70415;BMP280;57837;52.064;113.478;2023-03-01T17:48:15;93386.66;;;-3.11
70415;BMP280;57837;52.064;113.478;2023-03-01T17:51:19;93401.13;;;-3.12
70415;BMP280;57837;52.064;113.478;2023-03-01T17:54:23;93392.75;;;-3.16
70415;BMP280;57837;52.064;113.478;2023-03-01T17:57:27;93389.88;;;-3.14
70415;BMP280;57837;52.064;113.478;2023-03-01T18:00:31;93395.25;;;-3.19
70415;BMP280;57837;52.064;113.478;2023-03-01T18:03:34;93394.91;;;-3.18
70415;BMP280;57837;52.064;113.478;2023-03-01T18:06:38;93394.19;;;-3.18
70415;BMP280;57837;52.064;113.478;2023-03-01T18:09:42;93393.91;;;-3.10
70415;BMP280;57837;52.064;113.478;2023-03-01T18:12:46;93405.19;;;-3.00
70415;BMP280;57837;52.064;113.478;2023-03-01T18:15:49;93404.50;;;-2.97
70415;BMP280;57837;52.064;113.478;2023-03-01T18:18:54;93398.72;;;-2.97
70415;BMP280;57837;52.064;113.478;2023-03-01T18:21:58;93404.47;;;-3.01
70415;BMP280;57837;52.064;113.478;2023-03-01T18:25:01;93410.25;;;-3.00
70415;BMP280;57837;52.064;113.478;2023-03-01T18:28:04;93403.75;;;-3.01
70415;BMP280;57837;52.064;113.478;2023-03-01T18:31:08;93404.50;;;-2.97
70415;BMP280;57837;52.064;113.478;2023-03-01T18:34:14;93403.03;;;-2.98
70415;BMP280;57837;52.064;113.478;2023-03-01T18:37:17;93389.31;;;-2.97
70415;BMP280;57837;52.064;113.478;2023-03-01T18:40:21;93391.78;;;-3.04
70415;BMP280;57837;52.064;113.478;2023-03-01T18:43:25;93389.22;;;-3.08
70415;BMP280;57837;52.064;113.478;2023-03-01T18:46:31;93395.72;;;-3.10
70415;BMP280;57837;52.064;113.478;2023-03-01T18:49:38;93389.16;;;-3.15
70415;BMP280;57837;52.064;113.478;2023-03-01T18:52:43;93389.91;;;-3.11
70415;BMP280;57837;52.064;113.478;2023-03-01T18:55:46;93391.34;;;-3.13
70415;BMP280;57837;52.064;113.478;2023-03-01T18:58:49;93387.69;;;-3.16
70415;BMP280;57837;52.064;113.478;2023-03-01T19:01:52;93395.66;;;-3.14
70415;BMP280;57837;52.064;113.478;2023-03-01T19:04:56;93391.34;;;-3.13
70415;BMP280;57837;52.064;113.478;2023-03-01T19:08:00;93392.09;;;-3.09
70415;BMP280;57837;52.064;113.478;2023-03-01T19:11:04;93388.81;;;-3.13